Time;durP1;ratioP1;P1;durP2;ratioP2;P2;SDS_P1;SDS_P2;PMS_P1;PMS_P2;Temp;Humidity;BMP_temperature;BMP_pressure;BME280_temperature;BME280_humidity;BME280_pressure;Samples;Min_cycle;Max_cycle;Signal;HPM_P1;HPM_P2
2022/07/31 00:02:07;;;;;;;;;;;;;;;;;;4936035;29;19930;-70
2022/07/31 00:04:34;;;;;;;;;;;;;;;;;;4932913;29;20034;-70
2022/07/31 00:07:01;;;;;;;;;;;;;;;;;;4934835;29;19961;-70
2022/07/31 00:09:29;;;;;;;;;;;;;;;;;;4936793;28;19956;-70
2022/07/31 00:12:16;;;;;;;;;;;;;;;;;;4933245;29;20009;-70
2022/07/31 00:14:43;;;;;;;;;;;;;;;;;;4930312;29;20025;-70
2022/07/31 00:17:11;;;;;;;;;;;;;;;;;;4933557;28;19957;-71
2022/07/31 00:19:38;;;;;;;;;;;;;;;;;;4916372;29;19946;-71
2022/07/31 00:22:05;;;;;;;;;;;;;;;;;;4933123;29;19986;-71
2022/07/31 00:24:33;;;;;;;;;;;;;;;;;;4913165;29;19927;-71
2022/07/31 00:27:00;;;;;;;;;;;;;;;;;;4915829;29;20395;-71
2022/07/31 00:29:27;;;;;;;;;;;;;;;;;;4932101;29;19983;-71
2022/07/31 00:31:55;;;;;;;;;;;;;;;;;;4933020;29;20669;-71
2022/07/31 00:34:22;;;;;;;;;;;;;;;;;;4932333;29;19945;-71
2022/07/31 00:36:50;;;;;;;;;;;;;;;;;;4929968;29;20029;-71
2022/07/31 00:39:17;;;;;;;;;;;;;;;;;;4915248;29;20718;-71
2022/07/31 00:41:46;;;;;;;;;;;;;;;;;;4912281;29;19931;-70
2022/07/31 00:44:13;;;;;;;;;;;;;;;;;;4914342;29;20021;-71
2022/07/31 00:46:40;;;;;;;;;;;;;;;;;;4913205;29;20314;-71
2022/07/31 00:49:11;;;;;;;;;;;;;;;;;;4928875;29;19957;-71
2022/07/31 00:51:38;;;;;;;;;;;;;;;;;;4932383;29;19930;-71
2022/07/31 00:54:06;;;;;;;;;;;;;;;;;;4954543;23;19980;-76
2022/07/31 00:56:33;;;;;;;;;;;;;;;;;;4971172;28;19930;-76
2022/07/31 00:59:00;;;;;;;;;;;;;;;;;;4971074;28;20298;-76
2022/07/31 01:01:28;;;;;;;;;;;;;;;;;;4970324;28;19954;-76
2022/07/31 01:03:55;;;;;;;;;;;;;;;;;;4970257;28;19930;-77
2022/07/31 01:06:22;;;;;;;;;;;;;;;;;;4970925;28;20033;-76
2022/07/31 01:08:49;;;;;;;;;;;;;;;;;;4970600;28;19934;-76
2022/07/31 01:11:17;;;;;;;;;;;;;;;;;;4944352;28;19931;-77
2022/07/31 01:13:44;;;;;;;;;;;;;;;;;;4970676;28;19933;-77
2022/07/31 01:16:12;;;;;;;;;;;;;;;;;;4954058;28;19930;-77
2022/07/31 01:18:39;;;;;;;;;;;;;;;;;;4953231;28;19934;-76
2022/07/31 01:21:07;;;;;;;;;;;;;;;;;;4953595;28;19973;-77
2022/07/31 01:23:34;;;;;;;;;;;;;;;;;;4970767;28;19930;-77
2022/07/31 01:26:25;;;;;;;;;;;;;;;;;;4938286;28;19984;-76
2022/07/31 01:29:01;;;;;;;;;;;;;;;;;;4958477;28;20408;-77
2022/07/31 01:31:28;;;;;;;;;;;;;;;;;;4970381;28;20303;-77
2022/07/31 01:33:58;;;;;;;;;;;;;;;;;;4952905;28;19930;-76
2022/07/31 01:36:25;;;;;;;;;;;;;;;;;;4969675;28;20119;-77
2022/07/31 01:38:52;;;;;;;;;;;;;;;;;;4951981;28;20017;-76
2022/07/31 01:41:20;;;;;;;;;;;;;;;;;;4951710;28;19977;-76
2022/07/31 01:43:47;;;;;;;;;;;;;;;;;;4969993;28;19926;-77
2022/07/31 01:46:14;;;;;;;;;;;;;;;;;;4952707;28;19930;-76
2022/07/31 01:48:42;;;;;;;;;;;;;;;;;;4969466;28;20282;-77
2022/07/31 01:51:09;;;;;;;;;;;;;;;;;;4970755;28;20033;-76
2022/07/31 01:53:37;;;;;;;;;;;;;;;;;;4952931;28;19944;-76
2022/07/31 01:56:05;;;;;;;;;;;;;;;;;;4952589;28;20378;-76
2022/07/31 01:58:34;;;;;;;;;;;;;;;;;;4951709;28;19933;-76
2022/07/31 02:01:03;;;;;;;;;;;;;;;;;;4963207;28;19936;-77
2022/07/31 02:03:31;;;;;;;;;;;;;;;;;;4969455;28;20033;-76
2022/07/31 02:06:12;;;;;;;;;;;;;;;;;;4957125;28;20016;-76
2022/07/31 02:08:39;;;;;;;;;;;;;;;;;;4936112;28;20557;-76
2022/07/31 02:11:07;;;;;;;;;;;;;;;;;;4952465;28;19937;-76
2022/07/31 02:13:34;;;;;;;;;;;;;;;;;;4952391;28;19945;-76
2022/07/31 02:16:02;;;;;;;;;;;;;;;;;;4952415;28;19930;-76
2022/07/31 02:18:31;;;;;;;;;;;;;;;;;;4952167;28;20021;-76
2022/07/31 02:21:18;;;;;;;;;;;;;;;;;;4952669;28;20337;-76
2022/07/31 02:23:46;;;;;;;;;;;;;;;;;;4950887;28;19930;-76
2022/07/31 02:26:13;;;;;;;;;;;;;;;;;;4970796;28;19985;-76
2022/07/31 02:28:40;;;;;;;;;;;;;;;;;;4973495;28;19962;-76
2022/07/31 02:31:09;;;;;;;;;;;;;;;;;;4974711;28;19930;-77
2022/07/31 02:33:36;;;;;;;;;;;;;;;;;;4970784;28;19976;-76
2022/07/31 02:36:04;;;;;;;;;;;;;;;;;;4952563;28;20433;-77
2022/07/31 02:38:32;;;;;;;;;;;;;;;;;;4967970;28;19930;-77
2022/07/31 02:41:00;;;;;;;;;;;;;;;;;;4950259;28;19934;-76
2022/07/31 02:43:28;;;;;;;;;;;;;;;;;;4952282;28;19933;-76
2022/07/31 02:45:57;;;;;;;;;;;;;;;;;;4952220;28;19984;-76
2022/07/31 02:48:24;;;;;;;;;;;;;;;;;;4949863;28;19930;-76
2022/07/31 02:50:53;;;;;;;;;;;;;;;;;;4965387;28;20281;-76
2022/07/31 02:53:20;;;;;;;;;;;;;;;;;;4967586;28;19934;-76
2022/07/31 02:55:51;;;;;;;;;;;;;;;;;;4960073;28;20486;-75
2022/07/31 02:58:18;;;;;;;;;;;;;;;;;;4950870;28;19942;-77
2022/07/31 03:00:46;;;;;;;;;;;;;;;;;;4951891;28;20017;-76
2022/07/31 03:03:14;;;;;;;;;;;;;;;;;;4951863;28;19933;-77
2022/07/31 03:05:42;;;;;;;;;;;;;;;;;;4935619;28;20025;-77
2022/07/31 03:08:09;;;;;;;;;;;;;;;;;;4935614;28;20289;-77
2022/07/31 03:10:39;;;;;;;;;;;;;;;;;;4951236;28;20386;-77
2022/07/31 03:13:06;;;;;;;;;;;;;;;;;;4949852;28;19937;-76
2022/07/31 03:15:34;;;;;;;;;;;;;;;;;;4951463;28;19930;-76
2022/07/31 03:18:01;;;;;;;;;;;;;;;;;;4951601;28;19930;-76
2022/07/31 03:20:39;;;;;;;;;;;;;;;;;;4951269;28;19930;-76
2022/07/31 03:23:08;;;;;;;;;;;;;;;;;;4935885;28;20417;-76
2022/07/31 03:25:43;;;;;;;;;;;;;;;;;;4949427;28;20065;-76
2022/07/31 03:28:11;;;;;;;;;;;;;;;;;;4966531;28;19930;-76
2022/07/31 03:30:38;;;;;;;;;;;;;;;;;;4968071;28;20462;-76
2022/07/31 03:33:05;;;;;;;;;;;;;;;;;;4963654;28;20020;-76
2022/07/31 03:35:36;;;;;;;;;;;;;;;;;;4970421;28;19934;-76
2022/07/31 03:38:10;;;;;;;;;;;;;;;;;;4970873;28;19980;-76
2022/07/31 03:41:00;;;;;;;;;;;;;;;;;;4971198;28;20011;-76
2022/07/31 03:43:27;;;;;;;;;;;;;;;;;;4987543;28;19937;-76
2022/07/31 03:45:54;;;;;;;;;;;;;;;;;;4956342;28;19930;-76
2022/07/31 03:48:21;;;;;;;;;;;;;;;;;;4950483;28;19963;-76
2022/07/31 03:50:49;;;;;;;;;;;;;;;;;;4968456;28;19930;-76
2022/07/31 03:53:16;;;;;;;;;;;;;;;;;;4951267;28;19926;-76
2022/07/31 03:55:45;;;;;;;;;;;;;;;;;;4951002;28;20171;-77
2022/07/31 03:58:12;;;;;;;;;;;;;;;;;;4950676;28;19976;-76
2022/07/31 04:00:39;;;;;;;;;;;;;;;;;;4954101;28;20447;-76
2022/07/31 04:03:07;;;;;;;;;;;;;;;;;;4954131;28;20402;-76
2022/07/31 04:05:42;;;;;;;;;;;;;;;;;;4967406;28;19930;-76
2022/07/31 04:08:09;;;;;;;;;;;;;;;;;;4970527;28;19954;-76
2022/07/31 04:10:37;;;;;;;;;;;;;;;;;;4954796;28;19926;-76
2022/07/31 04:13:06;;;;;;;;;;;;;;;;;;4970898;28;20268;-76
2022/07/31 04:15:33;;;;;;;;;;;;;;;;;;4971019;28;20218;-76
2022/07/31 04:18:00;;;;;;;;;;;;;;;;;;4969639;28;19934;-76
2022/07/31 04:20:34;;;;;;;;;;;;;;;;;;4956049;28;19926;-76
2022/07/31 04:23:02;;;;;;;;;;;;;;;;;;4972603;28;19938;-76
2022/07/31 04:25:48;;;;;;;;;;;;;;;;;;4956096;28;20016;-75
2022/07/31 04:28:25;;;;;;;;;;;;;;;;;;4968331;28;20262;-76
2022/07/31 04:30:52;;;;;;;;;;;;;;;;;;4967838;28;19930;-77
2022/07/31 04:33:19;;;;;;;;;;;;;;;;;;4960800;28;19965;-76
2022/07/31 04:35:47;;;;;;;;;;;;;;;;;;4950800;28;19930;-76
2022/07/31 04:38:15;;;;;;;;;;;;;;;;;;4954220;28;20028;-77
2022/07/31 04:40:43;;;;;;;;;;;;;;;;;;4962895;28;19926;-76
2022/07/31 04:43:11;;;;;;;;;;;;;;;;;;4983806;28;19930;-76
2022/07/31 04:45:38;;;;;;;;;;;;;;;;;;4972826;28;20448;-77
2022/07/31 04:48:06;;;;;;;;;;;;;;;;;;4965424;28;19926;-76
2022/07/31 04:50:34;;;;;;;;;;;;;;;;;;4951264;28;20266;-76
2022/07/31 04:53:01;;;;;;;;;;;;;;;;;;4964368;28;19956;-77
2022/07/31 04:55:33;;;;;;;;;;;;;;;;;;4953096;28;19926;-76
2022/07/31 04:58:00;;;;;;;;;;;;;;;;;;4970908;28;19930;-77
2022/07/31 05:00:28;;;;;;;;;;;;;;;;;;4954734;28;20410;-77
2022/07/31 05:02:55;;;;;;;;;;;;;;;;;;4953226;28;19934;-77
2022/07/31 05:05:22;;;;;;;;;;;;;;;;;;4970179;28;19934;-77
2022/07/31 05:07:50;;;;;;;;;;;;;;;;;;4970344;28;19961;-77
2022/07/31 05:13:05;;;;;;;;;;;;;;;;;;4954625;28;19930;-77
2022/07/31 05:15:33;;;;;;;;;;;;;;;;;;4936930;28;20442;-77
2022/07/31 05:18:01;;;;;;;;;;;;;;;;;;4952153;28;20446;-76
2022/07/31 05:20:43;;;;;;;;;;;;;;;;;;4954494;28;20114;-76
2022/07/31 05:23:28;;;;;;;;;;;;;;;;;;4970152;28;20023;-76
2022/07/31 05:26:16;;;;;;;;;;;;;;;;;;4968580;28;19926;-77
2022/07/31 05:28:43;;;;;;;;;;;;;;;;;;4969324;28;19949;-77
2022/07/31 05:31:12;;;;;;;;;;;;;;;;;;4966927;28;20411;-77
2022/07/31 05:33:40;;;;;;;;;;;;;;;;;;4954596;28;20367;-76
2022/07/31 05:36:07;;;;;;;;;;;;;;;;;;4952733;28;19936;-76
2022/07/31 05:38:34;;;;;;;;;;;;;;;;;;4970084;28;19926;-77
2022/07/31 05:41:25;;;;;;;;;;;;;;;;;;4959837;28;19930;-77
2022/07/31 05:44:11;;;;;;;;;;;;;;;;;;4969387;28;19949;-77
2022/07/31 05:46:47;;;;;;;;;;;;;;;;;;4950398;28;20365;-77
2022/07/31 05:49:14;;;;;;;;;;;;;;;;;;4951994;28;20295;-76
2022/07/31 05:51:43;;;;;;;;;;;;;;;;;;4952019;28;20409;-77
2022/07/31 05:54:11;;;;;;;;;;;;;;;;;;4952868;28;20298;-77
2022/07/31 05:56:57;;;;;;;;;;;;;;;;;;4967172;28;19940;-77
2022/07/31 05:59:34;;;;;;;;;;;;;;;;;;4984484;28;19930;-77
2022/07/31 06:02:03;;;;;;;;;;;;;;;;;;4951931;28;20399;-76
2022/07/31 06:04:41;;;;;;;;;;;;;;;;;;4951847;28;19936;-75
2022/07/31 06:07:08;;;;;;;;;;;;;;;;;;4952431;28;20480;-77
2022/07/31 06:09:36;;;;;;;;;;;;;;;;;;4951895;28;20276;-77
2022/07/31 06:12:03;;;;;;;;;;;;;;;;;;4951112;28;19934;-77
2022/07/31 06:14:31;;;;;;;;;;;;;;;;;;4951754;28;20017;-77
2022/07/31 06:17:08;;;;;;;;;;;;;;;;;;4951390;28;19934;-76
2022/07/31 06:19:37;;;;;;;;;;;;;;;;;;4983236;28;19949;-77
2022/07/31 06:22:04;;;;;;;;;;;;;;;;;;4950608;28;19930;-77
2022/07/31 06:24:32;;;;;;;;;;;;;;;;;;4974366;28;19926;-77
2022/07/31 06:27:00;;;;;;;;;;;;;;;;;;4959657;28;19953;-77
2022/07/31 06:29:29;;;;;;;;;;;;;;;;;;4957215;28;19930;-77
2022/07/31 06:32:07;;;;;;;;;;;;;;;;;;4951791;28;20294;-76
2022/07/31 06:34:34;;;;;;;;;;;;;;;;;;4969307;28;20021;-77
2022/07/31 06:37:02;;;;;;;;;;;;;;;;;;4957740;28;19976;-77
2022/07/31 06:39:29;;;;;;;;;;;;;;;;;;4953302;28;19969;-77
2022/07/31 06:42:37;;;;;;;;;;;;;;;;;;4956654;28;19981;-77
2022/07/31 06:45:04;;;;;;;;;;;;;;;;;;4950776;28;19930;-77
2022/07/31 06:47:51;;;;;;;;;;;;;;;;;;4967670;28;20268;-78
2022/07/31 06:50:29;;;;;;;;;;;;;;;;;;4952105;28;19949;-77
2022/07/31 06:53:14;;;;;;;;;;;;;;;;;;4971990;28;20350;-77
2022/07/31 06:55:42;;;;;;;;;;;;;;;;;;4953170;28;19989;-77
2022/07/31 06:58:10;;;;;;;;;;;;;;;;;;4951830;28;19938;-76
2022/07/31 07:00:38;;;;;;;;;;;;;;;;;;4966763;28;20283;-77
2022/07/31 07:03:05;;;;;;;;;;;;;;;;;;4949477;28;19929;-77
2022/07/31 07:05:32;;;;;;;;;;;;;;;;;;4951721;28;20017;-77
2022/07/31 07:08:00;;;;;;;;;;;;;;;;;;4955682;28;19926;-77
2022/07/31 07:10:29;;;;;;;;;;;;;;;;;;4951888;28;19930;-77
2022/07/31 07:12:57;;;;;;;;;;;;;;;;;;4951538;28;20191;-77
2022/07/31 07:15:24;;;;;;;;;;;;;;;;;;4951974;28;19934;-78
2022/07/31 07:17:51;;;;;;;;;;;;;;;;;;4949773;28;20492;-77
2022/07/31 07:20:27;;;;;;;;;;;;;;;;;;4933743;28;19930;-78
2022/07/31 07:22:55;;;;;;;;;;;;;;;;;;4953386;28;19926;-78
2022/07/31 07:25:34;;;;;;;;;;;;;;;;;;4954177;28;19934;-78
2022/07/31 07:28:02;;;;;;;;;;;;;;;;;;4969239;28;19936;-77
2022/07/31 07:30:30;;;;;;;;;;;;;;;;;;4951382;28;19926;-77
2022/07/31 07:32:59;;;;;;;;;;;;;;;;;;4954378;28;19933;-78
2022/07/31 07:35:27;;;;;;;;;;;;;;;;;;4949818;28;20442;-78
2022/07/31 07:38:00;;;;;;;;;;;;;;;;;;4955549;28;19926;-78
2022/07/31 07:40:28;;;;;;;;;;;;;;;;;;4971742;28;19933;-78
2022/07/31 07:42:55;;;;;;;;;;;;;;;;;;4960185;28;19929;-77
2022/07/31 07:45:27;;;;;;;;;;;;;;;;;;4953507;28;20030;-77
2022/07/31 07:47:54;;;;;;;;;;;;;;;;;;4953779;28;20608;-77
2022/07/31 07:50:42;;;;;;;;;;;;;;;;;;4938773;28;19930;-78
2022/07/31 07:53:30;;;;;;;;;;;;;;;;;;4974239;28;19933;-77
2022/07/31 07:56:30;;;;;;;;;;;;;;;;;;4937492;28;19937;-78
2022/07/31 07:59:17;;;;;;;;;;;;;;;;;;4950726;28;19926;-77
2022/07/31 08:02:04;;;;;;;;;;;;;;;;;;4938799;28;19945;-77
2022/07/31 08:04:32;;;;;;;;;;;;;;;;;;4958184;28;19926;-77
2022/07/31 08:07:00;;;;;;;;;;;;;;;;;;4955195;28;21364;-77
2022/07/31 08:09:32;;;;;;;;;;;;;;;;;;4962774;28;19934;-77
2022/07/31 08:12:18;;;;;;;;;;;;;;;;;;4969522;28;19945;-76
2022/07/31 08:15:05;;;;;;;;;;;;;;;;;;4967018;28;20001;-77
2022/07/31 08:17:59;;;;;;;;;;;;;;;;;;4960360;28;20016;-77
2022/07/31 08:20:26;;;;;;;;;;;;;;;;;;4938561;28;19938;-76
2022/07/31 08:22:54;;;;;;;;;;;;;;;;;;4955558;28;19926;-76
2022/07/31 08:25:21;;;;;;;;;;;;;;;;;;4971248;28;19930;-76
2022/07/31 08:27:48;;;;;;;;;;;;;;;;;;4963450;28;19930;-77
2022/07/31 08:30:16;;;;;;;;;;;;;;;;;;4954905;28;19926;-75
2022/07/31 08:32:43;;;;;;;;;;;;;;;;;;4952097;28;20500;-75
2022/07/31 08:35:33;;;;;;;;;;;;;;;;;;4952112;28;19980;-76
2022/07/31 08:38:00;;;;;;;;;;;;;;;;;;4948524;28;19930;-76
2022/07/31 08:40:42;;;;;;;;;;;;;;;;;;4982777;28;19956;-75
2022/07/31 08:43:10;;;;;;;;;;;;;;;;;;4950235;28;19960;-76
2022/07/31 08:45:58;;;;;;;;;;;;;;;;;;4967133;28;19933;-76
2022/07/31 08:48:28;;;;;;;;;;;;;;;;;;4934854;28;19930;-76
2022/07/31 08:50:56;;;;;;;;;;;;;;;;;;4951032;28;19980;-76
2022/07/31 08:53:52;;;;;;;;;;;;;;;;;;4925275;28;19931;-76
2022/07/31 08:56:19;;;;;;;;;;;;;;;;;;4950342;28;19936;-76
2022/07/31 08:58:46;;;;;;;;;;;;;;;;;;4951707;28;20296;-76
2022/07/31 09:01:14;;;;;;;;;;;;;;;;;;4952907;28;20477;-77
2022/07/31 09:03:41;;;;;;;;;;;;;;;;;;4950078;28;19949;-77
2022/07/31 09:06:11;;;;;;;;;;;;;;;;;;4951800;28;19965;-77
2022/07/31 09:08:38;;;;;;;;;;;;;;;;;;4966558;28;20446;-76
2022/07/31 09:11:07;;;;;;;;;;;;;;;;;;4934393;28;19933;-76
2022/07/31 09:13:41;;;;;;;;;;;;;;;;;;4951744;28;20425;-76
2022/07/31 09:16:27;;;;;;;;;;;;;;;;;;4954301;28;20377;-76
2022/07/31 09:18:57;;;;;;;;;;;;;;;;;;4949111;28;19996;-76
2022/07/31 09:21:24;;;;;;;;;;;;;;;;;;4966788;28;19927;-77
2022/07/31 09:23:53;;;;;;;;;;;;;;;;;;4940677;28;19962;-77
2022/07/31 09:26:20;;;;;;;;;;;;;;;;;;4952453;28;20017;-77
2022/07/31 09:28:49;;;;;;;;;;;;;;;;;;4968417;28;19980;-76
2022/07/31 09:31:17;;;;;;;;;;;;;;;;;;4951651;28;19930;-77
2022/07/31 09:33:58;;;;;;;;;;;;;;;;;;4949397;28;20000;-76
2022/07/31 09:36:34;;;;;;;;;;;;;;;;;;4950924;28;20076;-77
2022/07/31 09:39:30;;;;;;;;;;;;;;;;;;4968980;28;19926;-77
2022/07/31 09:42:16;;;;;;;;;;;;;;;;;;4969683;28;19930;-77
2022/07/31 09:44:54;;;;;;;;;;;;;;;;;;4948520;28;19930;-77
2022/07/31 09:47:21;;;;;;;;;;;;;;;;;;4952537;28;20042;-75
2022/07/31 09:49:49;;;;;;;;;;;;;;;;;;4948264;28;20326;-77
2022/07/31 09:52:17;;;;;;;;;;;;;;;;;;4942020;28;20013;-78
2022/07/31 09:54:45;;;;;;;;;;;;;;;;;;4935617;28;19926;-78
2022/07/31 09:57:23;;;;;;;;;;;;;;;;;;4954679;28;20064;-77
2022/07/31 09:59:55;;;;;;;;;;;;;;;;;;4950175;28;19933;-77
2022/07/31 10:02:22;;;;;;;;;;;;;;;;;;4965776;28;20788;-77
2022/07/31 10:04:50;;;;;;;;;;;;;;;;;;4951159;28;19930;-76
2022/07/31 10:07:17;;;;;;;;;;;;;;;;;;4951269;28;20398;-77
2022/07/31 10:09:59;;;;;;;;;;;;;;;;;;4948769;28;19974;-77
2022/07/31 10:12:51;;;;;;;;;;;;;;;;;;4950081;28;19996;-76
2022/07/31 10:15:19;;;;;;;;;;;;;;;;;;4954075;28;20389;-76
2022/07/31 10:17:58;;;;;;;;;;;;;;;;;;4949873;28;19929;-76
2022/07/31 10:20:35;;;;;;;;;;;;;;;;;;4952111;28;19954;-76
2022/07/31 10:23:08;;;;;;;;;;;;;;;;;;4938817;28;19933;-76
2022/07/31 10:25:37;;;;;;;;;;;;;;;;;;4960707;28;19936;-76
2022/07/31 10:28:05;;;;;;;;;;;;;;;;;;4968246;28;19988;-76
2022/07/31 10:30:32;;;;;;;;;;;;;;;;;;4953413;28;20118;-77
2022/07/31 10:33:00;;;;;;;;;;;;;;;;;;4952434;28;20041;-76
2022/07/31 10:35:27;;;;;;;;;;;;;;;;;;4969232;28;20288;-76
2022/07/31 10:38:20;;;;;;;;;;;;;;;;;;4951258;28;19940;-76
2022/07/31 10:40:55;;;;;;;;;;;;;;;;;;4947804;28;19926;-76
2022/07/31 10:43:23;;;;;;;;;;;;;;;;;;4966168;28;20306;-76
2022/07/31 10:46:05;;;;;;;;;;;;;;;;;;4959521;28;20383;-77
2022/07/31 10:49:02;;;;;;;;;;;;;;;;;;4951534;28;19930;-77
2022/07/31 10:51:53;;;;;;;;;;;;;;;;;;4976782;28;19930;-77
2022/07/31 10:54:50;;;;;;;;;;;;;;;;;;4963111;28;19930;-77
2022/07/31 10:57:42;;;;;;;;;;;;;;;;;;4956434;28;20025;-77
2022/07/31 11:00:44;;;;;;;;;;;;;;;;;;4954677;28;19953;-77
2022/07/31 11:03:43;;;;;;;;;;;;;;;;;;4943261;28;19937;-76
2022/07/31 11:06:50;;;;;;;;;;;;;;;;;;4924310;29;20045;-77
2022/07/31 11:09:38;;;;;;;;;;;;;;;;;;4908914;29;19943;-77
2022/07/31 11:12:36;;;;;;;;;;;;;;;;;;4956936;28;19941;-77
2022/07/31 11:15:29;;;;;;;;;;;;;;;;;;4941244;28;20387;-77
2022/07/31 11:18:15;;;;;;;;;;;;;;;;;;4970833;28;20025;-78
2022/07/31 11:21:02;;;;;;;;;;;;;;;;;;4970118;28;19927;-77
2022/07/31 11:23:43;;;;;;;;;;;;;;;;;;4966082;28;19936;-77
2022/07/31 11:26:24;;;;;;;;;;;;;;;;;;4968603;28;19937;-77
2022/07/31 11:28:58;;;;;;;;;;;;;;;;;;4953580;28;20021;-76
2022/07/31 11:31:26;;;;;;;;;;;;;;;;;;4957712;28;20346;-76
2022/07/31 11:33:53;;;;;;;;;;;;;;;;;;4951520;28;20025;-76
2022/07/31 11:36:22;;;;;;;;;;;;;;;;;;4960374;28;19936;-76
2022/07/31 11:38:50;;;;;;;;;;;;;;;;;;4963141;28;20467;-77
2022/07/31 11:41:17;;;;;;;;;;;;;;;;;;4947361;28;19933;-78
2022/07/31 11:43:48;;;;;;;;;;;;;;;;;;4966241;28;19926;-77
2022/07/31 11:46:15;;;;;;;;;;;;;;;;;;4948105;28;19927;-77
2022/07/31 11:48:43;;;;;;;;;;;;;;;;;;4949236;28;19937;-77
2022/07/31 11:51:11;;;;;;;;;;;;;;;;;;4966719;28;19926;-77
2022/07/31 11:53:40;;;;;;;;;;;;;;;;;;4929953;28;19934;-77
2022/07/31 11:56:08;;;;;;;;;;;;;;;;;;4970762;28;19930;-77
2022/07/31 11:58:36;;;;;;;;;;;;;;;;;;4969847;28;19942;-78
2022/07/31 12:01:04;;;;;;;;;;;;;;;;;;4953977;28;19926;-78
2022/07/31 12:03:31;;;;;;;;;;;;;;;;;;4970654;28;20374;-78
2022/07/31 12:05:58;;;;;;;;;;;;;;;;;;4975607;28;19934;-78
2022/07/31 12:08:25;;;;;;;;;;;;;;;;;;4973743;28;19926;-78
2022/07/31 12:10:53;;;;;;;;;;;;;;;;;;4945855;28;19966;-78
2022/07/31 12:13:20;;;;;;;;;;;;;;;;;;4961111;28;19937;-78
2022/07/31 12:15:48;;;;;;;;;;;;;;;;;;4966264;28;19930;-78
2022/07/31 12:18:15;;;;;;;;;;;;;;;;;;4971243;28;20032;-78
2022/07/31 12:20:42;;;;;;;;;;;;;;;;;;4976064;28;20010;-78
2022/07/31 12:23:11;;;;;;;;;;;;;;;;;;4953922;28;19941;-78
2022/07/31 12:26:00;;;;;;;;;;;;;;;;;;4963687;28;19949;-79
2022/07/31 12:28:27;;;;;;;;;;;;;;;;;;4967575;28;19944;-78
2022/07/31 12:30:54;;;;;;;;;;;;;;;;;;4945532;28;19930;-79
2022/07/31 12:33:22;;;;;;;;;;;;;;;;;;4964746;28;19930;-79
2022/07/31 12:35:49;;;;;;;;;;;;;;;;;;4964645;28;20438;-80
2022/07/31 12:38:22;;;;;;;;;;;;;;;;;;4960485;28;19934;-79
2022/07/31 12:41:07;;;;;;;;;;;;;;;;;;4958697;28;19965;-79
2022/07/31 12:43:34;;;;;;;;;;;;;;;;;;4962008;28;19940;-78
2022/07/31 12:46:04;;;;;;;;;;;;;;;;;;4960430;28;20359;-78
2022/07/31 12:48:31;;;;;;;;;;;;;;;;;;4944292;28;19930;-75
2022/07/31 12:51:04;;;;;;;;;;;;;;;;;;4962388;28;20283;-78
2022/07/31 12:53:32;;;;;;;;;;;;;;;;;;4960164;28;19930;-78
2022/07/31 12:55:59;;;;;;;;;;;;;;;;;;4944782;23;20034;-76
2022/07/31 12:58:26;;;;;;;;;;;;;;;;;;4944695;28;19934;-76
2022/07/31 13:00:55;;;;;;;;;;;;;;;;;;4931397;28;19985;-75
2022/07/31 13:03:23;;;;;;;;;;;;;;;;;;4928818;28;19935;-75
2022/07/31 13:05:51;;;;;;;;;;;;;;;;;;4931885;28;20484;-75
2022/07/31 13:08:18;;;;;;;;;;;;;;;;;;4934267;28;19944;-76
2022/07/31 13:10:45;;;;;;;;;;;;;;;;;;4928803;28;19941;-76
2022/07/31 13:13:13;;;;;;;;;;;;;;;;;;4925411;28;19934;-75
2022/07/31 13:15:40;;;;;;;;;;;;;;;;;;4931483;28;21344;-75
2022/07/31 13:18:07;;;;;;;;;;;;;;;;;;4934579;28;20218;-77
2022/07/31 13:20:35;;;;;;;;;;;;;;;;;;4932755;28;20476;-77
2022/07/31 13:23:04;;;;;;;;;;;;;;;;;;4905378;29;19934;-75
2022/07/31 13:25:31;;;;;;;;;;;;;;;;;;4934987;29;19936;-76
2022/07/31 13:27:58;;;;;;;;;;;;;;;;;;4932932;28;20004;-75
2022/07/31 13:30:29;;;;;;;;;;;;;;;;;;4937711;28;19938;-76
2022/07/31 13:32:56;;;;;;;;;;;;;;;;;;4931901;28;20863;-77
2022/07/31 13:35:24;;;;;;;;;;;;;;;;;;4927610;28;19969;-75
2022/07/31 13:37:54;;;;;;;;;;;;;;;;;;4921352;28;19934;-77
2022/07/31 13:43:08;;;;;;;;;;;;;;;;;;4932352;28;20033;-76
2022/07/31 13:45:35;;;;;;;;;;;;;;;;;;4932851;28;19934;-74
2022/07/31 13:48:03;;;;;;;;;;;;;;;;;;4914549;28;19946;-75
2022/07/31 13:50:36;;;;;;;;;;;;;;;;;;4932819;28;20033;-75
2022/07/31 13:53:03;;;;;;;;;;;;;;;;;;4926954;28;20422;-76
2022/07/31 13:55:30;;;;;;;;;;;;;;;;;;4934132;28;19930;-76
2022/07/31 13:57:58;;;;;;;;;;;;;;;;;;4916495;28;19962;-76
2022/07/31 14:00:25;;;;;;;;;;;;;;;;;;4937704;28;19938;-76
2022/07/31 14:02:53;;;;;;;;;;;;;;;;;;4932976;28;20342;-76
2022/07/31 14:05:20;;;;;;;;;;;;;;;;;;4931147;28;19930;-75
2022/07/31 14:07:47;;;;;;;;;;;;;;;;;;4933336;28;19938;-75
2022/07/31 14:10:18;;;;;;;;;;;;;;;;;;4935217;28;20577;-76
2022/07/31 14:12:47;;;;;;;;;;;;;;;;;;4928962;28;19931;-75
2022/07/31 14:15:16;;;;;;;;;;;;;;;;;;4930717;28;19962;-75
2022/07/31 14:17:43;;;;;;;;;;;;;;;;;;4921950;28;20322;-74
2022/07/31 14:20:11;;;;;;;;;;;;;;;;;;4937885;28;19965;-77
2022/07/31 14:22:38;;;;;;;;;;;;;;;;;;4919925;29;19930;-75
2022/07/31 14:25:06;;;;;;;;;;;;;;;;;;4938382;28;20436;-76
2022/07/31 14:27:33;;;;;;;;;;;;;;;;;;4935907;28;20425;-77
2022/07/31 14:30:00;;;;;;;;;;;;;;;;;;4919538;28;19981;-76
2022/07/31 14:32:29;;;;;;;;;;;;;;;;;;4917090;29;20363;-75
2022/07/31 14:34:56;;;;;;;;;;;;;;;;;;4930960;28;19941;-75
2022/07/31 14:37:24;;;;;;;;;;;;;;;;;;4931120;28;19957;-75
2022/07/31 14:39:51;;;;;;;;;;;;;;;;;;4929016;28;20398;-75
2022/07/31 14:42:21;;;;;;;;;;;;;;;;;;4930075;28;19937;-75
2022/07/31 14:44:52;;;;;;;;;;;;;;;;;;4926519;28;19936;-75
2022/07/31 14:47:19;;;;;;;;;;;;;;;;;;4928202;28;20264;-75
2022/07/31 14:49:46;;;;;;;;;;;;;;;;;;4933399;28;19969;-75
2022/07/31 14:52:34;;;;;;;;;;;;;;;;;;4931512;28;19962;-76
2022/07/31 14:55:01;;;;;;;;;;;;;;;;;;4919311;29;20484;-75
2022/07/31 14:57:30;;;;;;;;;;;;;;;;;;4930849;28;19973;-78
2022/07/31 14:59:57;;;;;;;;;;;;;;;;;;4932084;28;20351;-78
2022/07/31 15:02:25;;;;;;;;;;;;;;;;;;4931969;28;19934;-78
2022/07/31 15:04:52;;;;;;;;;;;;;;;;;;4930649;29;20379;-78
2022/07/31 15:07:19;;;;;;;;;;;;;;;;;;4926563;28;20014;-78
2022/07/31 15:10:06;;;;;;;;;;;;;;;;;;4925623;29;19930;-78
2022/07/31 15:12:34;;;;;;;;;;;;;;;;;;4925055;28;19935;-78
2022/07/31 15:15:01;;;;;;;;;;;;;;;;;;4928525;29;20104;-77
2022/07/31 15:17:28;;;;;;;;;;;;;;;;;;4929104;29;20557;-77
2022/07/31 15:19:56;;;;;;;;;;;;;;;;;;4919760;28;19935;-77
2022/07/31 15:22:23;;;;;;;;;;;;;;;;;;4922610;28;20417;-78
2022/07/31 15:24:50;;;;;;;;;;;;;;;;;;4919441;29;19954;-77
2022/07/31 15:27:19;;;;;;;;;;;;;;;;;;4928099;29;20066;-79
2022/07/31 15:29:46;;;;;;;;;;;;;;;;;;4925013;28;19931;-76
2022/07/31 15:32:27;;;;;;;;;;;;;;;;;;4923800;28;19954;-76
2022/07/31 15:34:54;;;;;;;;;;;;;;;;;;4924201;28;19931;-77
2022/07/31 15:37:21;;;;;;;;;;;;;;;;;;4911164;28;19958;-77
2022/07/31 15:39:48;;;;;;;;;;;;;;;;;;4927451;28;21802;-76
2022/07/31 15:42:28;;;;;;;;;;;;;;;;;;4925851;28;19934;-76
2022/07/31 15:44:55;;;;;;;;;;;;;;;;;;4926127;28;20379;-76
2022/07/31 15:47:22;;;;;;;;;;;;;;;;;;4925821;28;19953;-76
2022/07/31 15:49:49;;;;;;;;;;;;;;;;;;4929001;28;19931;-77
2022/07/31 15:52:17;;;;;;;;;;;;;;;;;;4924094;29;19962;-77
2022/07/31 15:54:45;;;;;;;;;;;;;;;;;;4931420;28;20395;-76
2022/07/31 15:57:12;;;;;;;;;;;;;;;;;;4932112;28;19934;-76
2022/07/31 15:59:40;;;;;;;;;;;;;;;;;;4935051;28;20461;-77
2022/07/31 16:02:07;;;;;;;;;;;;;;;;;;4929347;28;19931;-77
2022/07/31 16:04:37;;;;;;;;;;;;;;;;;;4931191;28;20025;-77
2022/07/31 16:07:18;;;;;;;;;;;;;;;;;;4932503;29;19931;-76
2022/07/31 16:10:05;;;;;;;;;;;;;;;;;;4935729;28;19930;-76
2022/07/31 16:12:42;;;;;;;;;;;;;;;;;;4938387;29;20200;-77
2022/07/31 16:15:10;;;;;;;;;;;;;;;;;;4939369;28;19930;-76
2022/07/31 16:17:38;;;;;;;;;;;;;;;;;;4936913;28;19938;-77
2022/07/31 16:20:07;;;;;;;;;;;;;;;;;;4930861;28;20021;-77
2022/07/31 16:22:35;;;;;;;;;;;;;;;;;;4924519;29;19953;-76
2022/07/31 16:25:03;;;;;;;;;;;;;;;;;;4934218;28;19938;-76
2022/07/31 16:27:30;;;;;;;;;;;;;;;;;;4935488;28;19935;-77
2022/07/31 16:29:57;;;;;;;;;;;;;;;;;;4934280;28;20402;-77
2022/07/31 16:32:27;;;;;;;;;;;;;;;;;;4916979;28;19950;-77
2022/07/31 16:34:54;;;;;;;;;;;;;;;;;;4937502;28;20026;-76
2022/07/31 16:37:26;;;;;;;;;;;;;;;;;;4936032;28;19930;-77
2022/07/31 16:40:13;;;;;;;;;;;;;;;;;;4935266;28;19941;-78
2022/07/31 16:42:55;;;;;;;;;;;;;;;;;;4934376;28;20424;-76
2022/07/31 16:45:23;;;;;;;;;;;;;;;;;;4931731;28;19942;-77
2022/07/31 16:47:50;;;;;;;;;;;;;;;;;;4936665;28;20245;-76
2022/07/31 16:50:18;;;;;;;;;;;;;;;;;;4935143;28;20047;-76
2022/07/31 16:52:45;;;;;;;;;;;;;;;;;;4933896;28;20481;-76
2022/07/31 16:55:14;;;;;;;;;;;;;;;;;;4934180;28;20699;-77
2022/07/31 16:57:41;;;;;;;;;;;;;;;;;;4933990;28;20481;-76
2022/07/31 17:00:09;;;;;;;;;;;;;;;;;;4935696;28;19990;-77
2022/07/31 17:02:37;;;;;;;;;;;;;;;;;;4936542;28;20098;-77
2022/07/31 17:05:04;;;;;;;;;;;;;;;;;;4931959;28;19935;-77
2022/07/31 17:07:32;;;;;;;;;;;;;;;;;;4931177;28;20357;-77
2022/07/31 17:09:59;;;;;;;;;;;;;;;;;;4938968;28;20001;-77
2022/07/31 17:12:27;;;;;;;;;;;;;;;;;;4943829;28;20090;-76
2022/07/31 17:14:54;;;;;;;;;;;;;;;;;;4940944;28;19926;-76
2022/07/31 17:17:22;;;;;;;;;;;;;;;;;;4928233;28;20038;-76
2022/07/31 17:19:50;;;;;;;;;;;;;;;;;;4942085;28;19934;-76